createdAt,value
2023-08-07T00:02:02.280Z,93954.69
2023-08-07T00:04:29.444Z,93941.63
2023-08-07T00:06:56.353Z,93968.31
2023-08-07T00:09:23.070Z,93970.53
2023-08-07T00:11:49.986Z,93983.59
2023-08-07T00:14:16.760Z,93986.72
2023-08-07T00:16:43.854Z,93961.72
2023-08-07T00:19:10.513Z,93963.06
2023-08-07T00:21:37.582Z,93963.53
2023-08-07T00:24:04.749Z,93968.41
2023-08-07T00:26:33.368Z,93974.22
2023-08-07T00:29:00.215Z,93971.44
2023-08-07T00:31:27.187Z,93952.50
2023-08-07T00:33:55.588Z,93979.59
2023-08-07T00:36:23.517Z,93959.03
2023-08-07T00:38:51.746Z,93973.00
2023-08-07T00:41:19.535Z,93970.84
2023-08-07T00:43:46.376Z,93973.53
2023-08-07T00:46:13.195Z,93980.44
2023-08-07T00:48:40.470Z,93959.66
2023-08-07T00:51:09.676Z,93978.22
2023-08-07T00:53:39.643Z,93979.91
2023-08-07T00:56:07.181Z,93978.22
2023-08-07T00:58:35.033Z,93984.91
2023-08-07T01:01:02.355Z,93979.09
2023-08-07T01:03:29.236Z,93981.44
2023-08-07T01:05:56.185Z,93988.69
2023-08-07T01:08:24.886Z,93979.75
2023-08-07T01:11:09.502Z,93988.81
2023-08-07T01:13:46.236Z,93990.91
2023-08-07T01:16:22.943Z,93990.47
2023-08-07T01:18:50.638Z,93975.59
2023-08-07T01:21:21.174Z,94003.63
2023-08-07T01:23:48.582Z,93987.75
2023-08-07T01:26:20.811Z,93997.47
2023-08-07T01:28:57.180Z,93963.16
2023-08-07T01:31:26.928Z,93998.25
2023-08-07T01:34:04.227Z,93990.69
2023-08-07T01:36:31.495Z,93992.00
2023-08-07T01:39:00.782Z,93988.22
2023-08-07T01:41:28.398Z,93974.25
2023-08-07T01:43:55.784Z,93994.25
2023-08-07T01:46:22.548Z,93983.63
2023-08-07T01:48:49.406Z,94000.19
2023-08-07T01:51:16.302Z,93997.59
2023-08-07T01:53:43.053Z,93986.53
2023-08-07T01:56:09.746Z,94005.09
2023-08-07T01:58:36.534Z,93998.03
2023-08-07T02:01:03.321Z,94004.53
2023-08-07T02:03:30.189Z,94000.28
2023-08-07T02:05:57.023Z,93995.50
2023-08-07T02:08:25.474Z,93991.16
2023-08-07T02:10:52.170Z,93993.59
2023-08-07T02:13:19.010Z,93982.84
2023-08-07T02:15:45.732Z,93993.03
2023-08-07T02:18:12.450Z,94003.53
2023-08-07T02:20:39.217Z,93974.81
2023-08-07T02:23:05.970Z,93996.03
2023-08-07T02:25:32.670Z,93994.03
2023-08-07T02:27:59.393Z,94007.09
2023-08-07T02:30:26.961Z,94006.97
2023-08-07T02:32:53.679Z,94008.09
2023-08-07T02:35:21.371Z,93999.94
2023-08-07T02:37:48.115Z,94009.19
2023-08-07T02:40:16.637Z,94005.09
2023-08-07T02:42:43.837Z,93997.47
2023-08-07T02:45:10.977Z,94008.75
2023-08-07T02:47:37.772Z,94007.75
2023-08-07T02:50:04.836Z,94015.81
2023-08-07T02:52:31.794Z,94021.94
2023-08-07T02:54:59.574Z,94025.72
2023-08-07T02:57:26.876Z,94019.59
2023-08-07T02:59:53.594Z,94032.19
2023-08-07T03:02:20.396Z,94009.75
2023-08-07T03:04:47.283Z,94033.88
2023-08-07T03:07:14.175Z,94029.06
2023-08-07T03:09:40.930Z,94033.31
2023-08-07T03:12:07.982Z,94044.81
2023-08-07T03:14:35.826Z,94042.91
2023-08-07T03:17:02.638Z,94055.31
2023-08-07T03:19:29.321Z,94052.84
2023-08-07T03:21:56.024Z,94043.97
2023-08-07T03:24:22.857Z,94053.91
2023-08-07T03:26:50.365Z,94055.22
2023-08-07T03:29:17.274Z,94066.25
2023-08-07T03:31:44.887Z,94061.53
2023-08-07T03:34:12.502Z,94065.69
2023-08-07T03:36:39.345Z,94057.69
2023-08-07T03:39:06.074Z,94069.50
2023-08-07T03:41:32.975Z,94063.25
2023-08-07T03:44:01.011Z,94076.16
2023-08-07T03:46:27.849Z,94059.53
2023-08-07T03:48:54.586Z,94069.78
2023-08-07T03:51:21.620Z,94075.38
2023-08-07T03:53:51.743Z,94060.19
2023-08-07T03:56:18.519Z,94088.91
2023-08-07T03:58:45.588Z,94087.47
2023-08-07T04:01:13.459Z,94084.47
2023-08-07T04:03:41.276Z,94074.09
2023-08-07T04:06:08.206Z,94086.69
2023-08-07T04:08:35.110Z,94087.91
2023-08-07T04:11:06.264Z,94084.91
2023-08-07T04:13:34.766Z,94080.50
2023-08-07T04:16:05.358Z,94087.59
2023-08-07T04:18:33.577Z,94090.88
2023-08-07T04:21:02.296Z,94082.16
2023-08-07T04:23:29.018Z,94083.53
2023-08-07T04:25:56.081Z,94073.25
2023-08-07T04:28:23.307Z,94084.19
2023-08-07T04:30:54.466Z,94091.91
2023-08-07T04:33:21.536Z,94089.44
2023-08-07T04:35:48.691Z,94094.13
2023-08-07T04:38:16.288Z,94083.50
2023-08-07T04:40:50.222Z,94091.34
2023-08-07T04:43:18.772Z,94091.97
2023-08-07T04:45:48.304Z,94092.16
2023-08-07T04:48:16.178Z,94100.00
2023-08-07T04:50:43.064Z,94096.59
2023-08-07T04:53:09.867Z,94107.31
2023-08-07T04:55:36.669Z,94090.34
2023-08-07T04:58:03.552Z,94097.72
2023-08-07T05:00:30.534Z,94106.03
2023-08-07T05:02:57.414Z,94105.03
2023-08-07T05:05:24.911Z,94110.06
2023-08-07T05:07:51.768Z,94106.63
2023-08-07T05:10:18.505Z,94098.44
2023-08-07T05:12:45.211Z,94108.63
2023-08-07T05:15:11.919Z,94106.84
2023-08-07T05:17:38.747Z,94112.34
2023-08-07T05:20:06.967Z,94109.00
2023-08-07T05:22:33.717Z,94118.75
2023-08-07T05:25:00.460Z,94109.59
2023-08-07T05:27:27.146Z,94119.31
2023-08-07T05:29:53.872Z,94131.06
2023-08-07T05:32:20.533Z,94134.22
2023-08-07T05:34:47.211Z,94142.28
2023-08-07T05:37:13.900Z,94141.53
2023-08-07T05:39:40.612Z,94157.63
2023-08-07T05:42:09.094Z,94133.03
2023-08-07T05:44:36.059Z,94150.38
2023-08-07T05:47:03.055Z,94148.81
2023-08-07T05:49:29.746Z,94155.88
2023-08-07T05:51:56.748Z,94163.91
2023-08-07T05:54:23.739Z,94154.91
2023-08-07T05:56:50.464Z,94164.88
2023-08-07T05:59:17.204Z,94163.88
2023-08-07T06:01:44.029Z,94165.25
2023-08-07T06:04:10.943Z,94165.28
2023-08-07T06:06:40.399Z,94176.94
2023-08-07T06:09:07.707Z,94166.34
2023-08-07T06:11:34.553Z,94156.50
2023-08-07T06:14:01.761Z,94166.34
2023-08-07T06:16:28.821Z,94176.31
2023-08-07T06:18:55.657Z,94178.69
2023-08-07T06:21:22.537Z,94171.84
2023-08-07T06:23:49.413Z,94166.13
2023-08-07T06:26:16.173Z,94177.53
2023-08-07T06:28:43.955Z,94166.53
2023-08-07T06:31:12.264Z,94165.53
2023-08-07T06:33:39.585Z,94173.59
2023-08-07T06:36:07.923Z,94183.56
2023-08-07T06:38:34.667Z,94177.75
2023-08-07T06:41:01.550Z,94182.63
2023-08-07T06:43:28.335Z,94176.31
2023-08-07T06:45:56.790Z,94182.63
2023-08-07T06:48:23.789Z,94180.75
2023-08-07T06:50:52.235Z,94187.75
2023-08-07T06:53:20.033Z,94187.78
2023-08-07T06:55:47.153Z,94194.28
2023-08-07T06:58:13.932Z,94186.28
2023-08-07T07:00:40.817Z,94195.31
2023-08-07T07:03:08.908Z,94205.41
2023-08-07T07:05:35.798Z,94206.13
2023-08-07T07:08:02.581Z,94209.94
2023-08-07T07:10:29.546Z,94206.44
2023-08-07T07:12:56.538Z,94203.19
2023-08-07T07:15:23.376Z,94201.63
2023-08-07T07:17:50.295Z,94211.31
2023-08-07T07:20:17.106Z,94211.94
2023-08-07T07:22:43.917Z,94215.66
2023-08-07T07:25:11.323Z,94225.19
2023-08-07T07:27:38.058Z,94223.38
2023-08-07T07:30:05.528Z,94220.69
2023-08-07T07:32:32.295Z,94206.53
2023-08-07T07:34:59.206Z,94226.09
2023-08-07T07:37:26.094Z,94233.94
2023-08-07T07:39:52.860Z,94221.75
2023-08-07T07:42:20.352Z,94219.94
2023-08-07T07:44:47.212Z,94228.72
2023-08-07T07:47:14.320Z,94230.78
2023-08-07T07:49:47.758Z,94234.00
2023-08-07T07:52:15.026Z,94232.34
2023-08-07T07:54:41.754Z,94232.34
2023-08-07T07:57:08.491Z,94230.50
2023-08-07T07:59:35.219Z,94239.03
2023-08-07T08:02:02.425Z,94236.53
2023-08-07T08:04:29.289Z,94248.44
2023-08-07T08:06:56.370Z,94245.50
2023-08-07T08:09:23.078Z,94258.31
2023-08-07T08:11:49.761Z,94250.75
2023-08-07T08:14:17.503Z,94262.31
2023-08-07T08:16:44.355Z,94263.78
2023-08-07T08:19:11.482Z,94258.50
2023-08-07T08:21:38.279Z,94276.44
2023-08-07T08:24:05.730Z,94259.88
2023-08-07T08:26:32.526Z,94263.94
2023-08-07T08:28:59.369Z,94265.13
2023-08-07T08:31:26.228Z,94272.22
2023-08-07T08:33:53.148Z,94277.09
2023-08-07T08:36:20.049Z,94273.78
2023-08-07T08:38:49.305Z,94276.44
2023-08-07T08:41:17.676Z,94276.16
2023-08-07T08:43:47.901Z,94279.16
2023-08-07T08:46:17.701Z,94285.50
2023-08-07T08:48:50.652Z,94272.56
2023-08-07T08:51:19.443Z,94280.44
2023-08-07T08:53:50.432Z,94280.72
2023-08-07T08:56:18.114Z,94275.44
2023-08-07T08:58:45.338Z,94283.53
2023-08-07T09:01:13.667Z,94278.09
2023-08-07T09:03:41.072Z,94276.28
2023-08-07T09:06:08.426Z,94278.81
2023-08-07T09:08:36.366Z,94273.38
2023-08-07T09:11:03.649Z,94280.50
2023-08-07T09:13:33.069Z,94275.16
2023-08-07T09:16:01.501Z,94285.06
2023-08-07T09:18:28.750Z,94299.34
2023-08-07T09:20:55.894Z,94299.03
2023-08-07T09:23:22.842Z,94304.50
2023-08-07T09:26:00.797Z,94304.59
2023-08-07T09:28:27.646Z,94307.00
2023-08-07T09:30:54.398Z,94301.06
2023-08-07T09:33:28.400Z,94308.50
2023-08-07T09:35:59.823Z,94313.13
2023-08-07T09:38:29.867Z,94325.31
2023-08-07T09:41:05.859Z,94323.94
2023-08-07T09:43:36.674Z,94319.81
2023-08-07T09:46:08.095Z,94318.53
2023-08-07T09:48:44.830Z,94325.44
2023-08-07T09:51:12.085Z,94325.06
2023-08-07T09:53:38.966Z,94324.44
2023-08-07T09:56:07.112Z,94328.75
2023-08-07T09:58:34.047Z,94326.84
2023-08-07T10:01:03.952Z,94325.47
2023-08-07T10:03:31.480Z,94323.38
2023-08-07T10:05:59.964Z,94317.31
2023-08-07T10:08:26.960Z,94323.34
2023-08-07T10:10:54.221Z,94323.09
2023-08-07T10:13:28.238Z,94326.28
2023-08-07T10:16:05.381Z,94314.06
2023-08-07T10:18:32.162Z,94313.50
2023-08-07T10:20:59.204Z,94304.97
2023-08-07T10:23:25.894Z,94319.97
2023-08-07T10:25:53.213Z,94319.91
2023-08-07T10:28:21.824Z,94312.91
2023-08-07T10:30:49.967Z,94328.75
2023-08-07T10:33:20.736Z,94321.13
2023-08-07T10:35:51.854Z,94327.00
2023-08-07T10:38:23.416Z,94326.47
2023-08-07T10:41:02.719Z,94320.28
2023-08-07T10:43:30.304Z,94324.56
2023-08-07T10:46:14.648Z,94327.91
2023-08-07T10:48:47.761Z,94328.56
2023-08-07T10:51:16.223Z,94333.56
2023-08-07T10:53:48.757Z,94333.25
2023-08-07T10:56:30.109Z,94323.53
2023-08-07T10:58:57.069Z,94332.69
2023-08-07T11:01:36.257Z,94333.16
2023-08-07T11:04:14.857Z,94322.44
2023-08-07T11:06:43.594Z,94332.00
2023-08-07T11:09:11.338Z,94330.06
2023-08-07T11:11:41.464Z,94334.88
2023-08-07T11:14:16.362Z,94342.63
2023-08-07T11:16:44.581Z,94337.84
2023-08-07T11:19:15.428Z,94335.19
2023-08-07T11:21:43.520Z,94332.72
2023-08-07T11:24:14.547Z,94326.38
2023-08-07T11:26:43.284Z,94332.75
2023-08-07T11:29:10.609Z,94328.41
2023-08-07T11:31:37.604Z,94333.84
2023-08-07T11:34:04.398Z,94337.78
2023-08-07T11:36:32.845Z,94326.69
2023-08-07T11:38:59.677Z,94333.31
2023-08-07T11:41:26.377Z,94343.31
2023-08-07T11:43:53.156Z,94342.81
2023-08-07T11:46:19.910Z,94336.06
2023-08-07T11:48:46.680Z,94336.50
2023-08-07T11:51:14.314Z,94337.53
2023-08-07T11:53:42.597Z,94359.34
2023-08-07T11:56:11.801Z,94357.22
2023-08-07T11:58:41.090Z,94350.31
2023-08-07T12:01:11.262Z,94360.81
2023-08-07T12:03:40.009Z,94363.09
2023-08-07T12:06:09.250Z,94364.38
2023-08-07T12:08:38.233Z,94364.09
2023-08-07T12:11:07.164Z,94371.53
2023-08-07T12:13:36.425Z,94376.25
2023-08-07T12:16:06.599Z,94376.91
2023-08-07T12:18:34.026Z,94381.88
2023-08-07T12:21:02.277Z,94375.91
2023-08-07T12:23:29.345Z,94382.94
2023-08-07T12:25:56.670Z,94384.34
2023-08-07T12:28:23.759Z,94389.28
2023-08-07T12:30:52.308Z,94383.63
2023-08-07T12:33:19.810Z,94388.56
2023-08-07T12:35:47.140Z,94395.16
2023-08-07T12:38:16.783Z,94391.97
2023-08-07T12:40:44.629Z,94394.63
2023-08-07T12:43:11.656Z,94396.47
2023-08-07T12:48:08.837Z,94402.28
2023-08-07T12:50:35.897Z,94411.19
2023-08-07T12:53:03.180Z,94398.66
2023-08-07T12:55:30.883Z,94411.66
2023-08-07T12:57:58.422Z,94410.22
2023-08-07T13:00:26.577Z,94425.13
2023-08-07T13:02:54.836Z,94429.25
2023-08-07T13:05:23.312Z,94408.78
2023-08-07T13:07:50.126Z,94426.91
2023-08-07T13:10:18.394Z,94425.69
2023-08-07T13:12:48.173Z,94421.50
2023-08-07T13:15:16.846Z,94424.28
2023-08-07T13:17:45.497Z,94420.72
2023-08-07T13:20:14.934Z,94436.56
2023-08-07T13:22:43.869Z,94442.75
2023-08-07T13:25:11.930Z,94435.97
2023-08-07T13:27:39.854Z,94441.00
2023-08-07T13:30:08.221Z,94456.16
2023-08-07T13:32:35.414Z,94460.88
2023-08-07T13:35:02.309Z,94447.09
2023-08-07T13:37:29.096Z,94445.03
2023-08-07T13:39:56.746Z,94454.53
2023-08-07T13:42:28.549Z,94448.94
2023-08-07T13:44:59.370Z,94458.88
2023-08-07T13:47:27.097Z,94443.94
2023-08-07T13:49:55.637Z,94447.09
2023-08-07T13:52:22.688Z,94449.25
2023-08-07T13:54:49.410Z,94447.28
2023-08-07T13:57:16.541Z,94447.25
2023-08-07T13:59:43.626Z,94464.03
2023-08-07T14:02:10.597Z,94456.50
2023-08-07T14:04:37.348Z,94462.44
2023-08-07T14:07:05.115Z,94454.91
2023-08-07T14:09:31.919Z,94467.22
2023-08-07T14:11:59.234Z,94463.53
2023-08-07T14:14:26.301Z,94469.16
2023-08-07T14:16:55.541Z,94474.91
2023-08-07T14:19:22.382Z,94470.00
2023-08-07T14:21:49.106Z,94471.16
2023-08-07T14:24:17.503Z,94479.91
2023-08-07T14:26:44.617Z,94475.28
2023-08-07T14:29:11.783Z,94475.75
2023-08-07T14:31:38.478Z,94477.69
2023-08-07T14:34:05.228Z,94475.19
2023-08-07T14:36:31.993Z,94477.06
2023-08-07T14:38:58.795Z,94489.56
2023-08-07T14:41:25.523Z,94476.91
2023-08-07T14:43:52.333Z,94492.09
2023-08-07T14:46:21.898Z,94487.53
2023-08-07T14:48:48.772Z,94499.59
2023-08-07T14:51:15.633Z,94492.03
2023-08-07T14:53:42.345Z,94492.91
2023-08-07T14:56:09.825Z,94488.00
2023-08-07T14:58:36.645Z,94485.94
2023-08-07T15:01:03.399Z,94478.97
2023-08-07T15:03:30.355Z,94483.66
2023-08-07T15:05:58.848Z,94485.16
2023-08-07T15:08:25.677Z,94474.09
2023-08-07T15:10:54.376Z,94469.84
2023-08-07T15:13:21.448Z,94456.63
2023-08-07T15:15:48.362Z,94476.91
2023-08-07T15:18:15.170Z,94446.25
2023-08-07T15:20:41.998Z,94464.78
2023-08-07T15:23:08.980Z,94462.25
2023-08-07T15:25:35.698Z,94458.13
2023-08-07T15:28:04.166Z,94462.94
2023-08-07T15:30:31.793Z,94461.09
2023-08-07T15:32:58.641Z,94460.75
2023-08-07T15:35:27.149Z,94459.34
2023-08-07T15:37:54.166Z,94456.00
2023-08-07T15:40:21.107Z,94468.00
2023-08-07T15:42:49.050Z,94456.00
2023-08-07T15:45:15.902Z,94463.66
2023-08-07T15:47:42.654Z,94474.03
2023-08-07T15:50:10.657Z,94473.97
2023-08-07T15:52:37.387Z,94469.41
2023-08-07T15:55:04.460Z,94468.63
2023-08-07T15:57:31.743Z,94464.50
2023-08-07T15:59:58.693Z,94461.53
2023-08-07T16:02:25.478Z,94450.84
2023-08-07T16:04:52.385Z,94457.72
2023-08-07T16:07:19.242Z,94449.88
2023-08-07T16:09:46.012Z,94465.81
2023-08-07T16:12:12.777Z,94459.19
2023-08-07T16:14:39.627Z,94451.59
2023-08-07T16:17:06.618Z,94461.97
2023-08-07T16:19:33.545Z,94459.31
2023-08-07T16:22:00.425Z,94457.47
2023-08-07T16:24:27.209Z,94453.72
2023-08-07T16:26:54.023Z,94461.75
2023-08-07T16:29:20.732Z,94453.00
2023-08-07T16:31:47.778Z,94461.16
2023-08-07T16:34:14.526Z,94453.56
2023-08-07T16:36:41.614Z,94456.34
2023-08-07T16:39:08.343Z,94449.16
2023-08-07T16:41:36.304Z,94462.09
2023-08-07T16:44:03.033Z,94471.50
2023-08-07T16:46:30.960Z,94462.59
2023-08-07T16:48:59.293Z,94462.88
2023-08-07T16:51:27.261Z,94462.25
2023-08-07T16:53:54.153Z,94456.13
2023-08-07T16:56:20.934Z,94469.84
2023-08-07T16:58:49.754Z,94452.53
2023-08-07T17:01:17.057Z,94475.72
2023-08-07T17:03:44.719Z,94472.50
2023-08-07T17:06:11.504Z,94463.00
2023-08-07T17:08:38.753Z,94461.38
2023-08-07T17:11:05.480Z,94471.66
2023-08-07T17:13:32.245Z,94471.75
2023-08-07T17:15:59.083Z,94469.97
2023-08-07T17:18:25.895Z,94449.94
2023-08-07T17:20:52.780Z,94470.44
2023-08-07T17:23:19.508Z,94460.78
2023-08-07T17:25:46.257Z,94462.66
2023-08-07T17:28:12.983Z,94456.56
2023-08-07T17:30:39.801Z,94470.16
2023-08-07T17:33:06.730Z,94466.06
2023-08-07T17:35:35.480Z,94467.63
2023-08-07T17:38:02.682Z,94466.00
2023-08-07T17:40:29.415Z,94474.81
2023-08-07T17:42:56.162Z,94476.63
2023-08-07T17:45:23.081Z,94481.91
2023-08-07T17:47:49.819Z,94477.06
2023-08-07T17:50:17.489Z,94487.09
2023-08-07T17:52:44.254Z,94490.03
2023-08-07T17:55:12.921Z,94484.63
2023-08-07T17:57:39.898Z,94480.63
2023-08-07T18:00:08.824Z,94489.66
2023-08-07T18:02:35.786Z,94494.22
2023-08-07T18:05:03.973Z,94488.19
2023-08-07T18:07:31.665Z,94487.41
2023-08-07T18:09:58.728Z,94486.03
2023-08-07T18:12:25.448Z,94481.22
2023-08-07T18:14:52.822Z,94495.06
2023-08-07T18:17:19.601Z,94482.06
2023-08-07T18:19:46.366Z,94493.19
2023-08-07T18:22:13.138Z,94502.41
2023-08-07T18:24:39.988Z,94478.47
2023-08-07T18:27:06.833Z,94504.75
2023-08-07T18:29:33.526Z,94501.56
2023-08-07T18:32:00.413Z,94503.28
2023-08-07T18:34:27.192Z,94496.16
2023-08-07T18:36:54.075Z,94516.34
2023-08-07T18:39:20.787Z,94504.59
2023-08-07T18:41:47.556Z,94502.47
2023-08-07T18:44:14.386Z,94504.91
2023-08-07T18:46:42.639Z,94515.31
2023-08-07T18:49:09.862Z,94506.50
2023-08-07T18:51:37.086Z,94483.88
2023-08-07T18:54:05.665Z,94514.81
2023-08-07T18:56:33.104Z,94512.28
2023-08-07T18:58:59.965Z,94508.13
2023-08-07T19:01:26.742Z,94520.34
2023-08-07T19:03:53.588Z,94519.84
2023-08-07T19:06:20.768Z,94526.56
2023-08-07T19:08:47.581Z,94518.94
2023-08-07T19:11:14.391Z,94523.44
2023-08-07T19:13:41.094Z,94520.22
2023-08-07T19:16:07.899Z,94513.69
2023-08-07T19:18:34.766Z,94524.91
2023-08-07T19:21:01.975Z,94537.16
2023-08-07T19:23:32.958Z,94535.13
2023-08-07T19:26:01.639Z,94515.84
2023-08-07T19:28:28.940Z,94528.06
2023-08-07T19:31:05.941Z,94543.75
2023-08-07T19:33:34.706Z,94540.94
2023-08-07T19:36:01.736Z,94534.47
2023-08-07T19:38:28.592Z,94540.50
2023-08-07T19:40:55.379Z,94539.16
2023-08-07T19:43:22.909Z,94534.09
2023-08-07T19:45:49.772Z,94533.09
2023-08-07T19:48:16.637Z,94539.47
2023-08-07T19:50:43.519Z,94532.72
2023-08-07T19:53:10.237Z,94535.97
2023-08-07T19:55:37.002Z,94544.72
2023-08-07T19:58:05.212Z,94533.88
2023-08-07T20:00:32.120Z,94536.56
2023-08-07T20:03:00.194Z,94522.44
2023-08-07T20:05:27.490Z,94511.44
2023-08-07T20:07:54.550Z,94531.28
2023-08-07T20:10:24.695Z,94535.44
2023-08-07T20:12:52.357Z,94537.84
2023-08-07T20:15:20.978Z,94535.38
2023-08-07T20:17:50.269Z,94532.44
2023-08-07T20:20:21.237Z,94533.25
2023-08-07T20:22:48.162Z,94532.91
2023-08-07T20:25:15.289Z,94529.81
2023-08-07T20:27:42.179Z,94539.94
2023-08-07T20:30:09.219Z,94533.97
2023-08-07T20:32:35.959Z,94537.63
2023-08-07T20:35:03.157Z,94535.16
2023-08-07T20:37:30.241Z,94527.94
2023-08-07T20:39:56.973Z,94538.38
2023-08-07T20:42:23.876Z,94536.66
2023-08-07T20:44:50.674Z,94517.53
2023-08-07T20:47:17.459Z,94545.59
2023-08-07T20:49:44.200Z,94536.59
2023-08-07T20:52:10.974Z,94532.22
2023-08-07T20:54:37.712Z,94536.00
2023-08-07T20:57:05.630Z,94536.00
2023-08-07T20:59:32.380Z,94538.22
2023-08-07T21:01:59.541Z,94530.50
2023-08-07T21:04:27.126Z,94520.16
2023-08-07T21:06:54.235Z,94527.53
2023-08-07T21:09:21.223Z,94529.13
2023-08-07T21:11:48.098Z,94527.91
2023-08-07T21:14:14.841Z,94518.00
2023-08-07T21:16:44.850Z,94521.13
2023-08-07T21:19:13.012Z,94515.03
2023-08-07T21:21:39.858Z,94510.97
2023-08-07T21:24:13.230Z,94519.94
2023-08-07T21:26:40.915Z,94508.31
2023-08-07T21:29:07.995Z,94511.75
2023-08-07T21:31:35.708Z,94500.91
2023-08-07T21:34:03.593Z,94507.16
2023-08-07T21:36:30.691Z,94498.22
2023-08-07T21:38:58.893Z,94506.38
2023-08-07T21:41:27.105Z,94506.84
2023-08-07T21:43:54.730Z,94509.84
2023-08-07T21:46:24.399Z,94510.06
2023-08-07T21:48:51.852Z,94487.13
2023-08-07T21:51:18.730Z,94502.97
2023-08-07T21:53:45.611Z,94508.66
2023-08-07T21:56:12.349Z,94506.72
2023-08-07T21:58:39.123Z,94501.00
2023-08-07T22:01:05.855Z,94495.53
2023-08-07T22:03:32.792Z,94502.72
2023-08-07T22:05:59.679Z,94486.84
2023-08-07T22:08:26.586Z,94504.72
2023-08-07T22:10:53.353Z,94503.00
2023-08-07T22:13:20.115Z,94495.59
2023-08-07T22:15:46.988Z,94482.56
2023-08-07T22:18:14.279Z,94503.00
2023-08-07T22:20:41.275Z,94506.16
2023-08-07T22:23:08.010Z,94492.44
2023-08-07T22:25:35.653Z,94497.34
2023-08-07T22:28:02.826Z,94508.88
2023-08-07T22:30:29.555Z,94495.53
2023-08-07T22:32:56.540Z,94497.28
2023-08-07T22:35:25.126Z,94501.25
2023-08-07T22:37:51.831Z,94495.09
2023-08-07T22:40:18.686Z,94501.75
2023-08-07T22:42:45.366Z,94504.00
2023-08-07T22:45:12.143Z,94501.38
2023-08-07T22:47:38.968Z,94506.59
2023-08-07T22:50:07.310Z,94493.16
2023-08-07T22:52:34.568Z,94495.41
2023-08-07T22:55:01.380Z,94492.28
2023-08-07T22:57:28.120Z,94490.22
2023-08-07T22:59:55.319Z,94498.13
2023-08-07T23:02:22.069Z,94480.97
2023-08-07T23:04:48.808Z,94472.81
2023-08-07T23:07:15.584Z,94491.88
2023-08-07T23:09:42.292Z,94487.16
2023-08-07T23:12:10.125Z,94488.28
2023-08-07T23:14:36.881Z,94472.34
2023-08-07T23:17:05.392Z,94484.97
2023-08-07T23:19:32.990Z,94482.63
2023-08-07T23:21:59.954Z,94468.59
2023-08-07T23:24:27.012Z,94481.69
2023-08-07T23:26:53.797Z,94467.81
2023-08-07T23:29:20.488Z,94469.91
2023-08-07T23:31:47.258Z,94462.19
2023-08-07T23:34:14.126Z,94455.56
2023-08-07T23:36:40.906Z,94468.91
2023-08-07T23:39:08.255Z,94453.81
2023-08-07T23:41:35.008Z,94460.09
2023-08-07T23:44:01.888Z,94441.69
2023-08-07T23:46:29.291Z,94440.69
2023-08-07T23:48:56.792Z,94424.19
2023-08-07T23:51:25.031Z,94452.03
2023-08-07T23:53:51.903Z,94444.94
2023-08-07T23:56:18.667Z,94445.72
2023-08-07T23:58:45.394Z,94448.09
